Time;durP1;ratioP1;P1;durP2;ratioP2;P2;SDS_P1;SDS_P2;PMS_P1;PMS_P2;Temp;Humidity;BMP_temperature;BMP_pressure;BME280_temperature;BME280_humidity;BME280_pressure;Samples;Min_cycle;Max_cycle;Signal;HPM_P1;HPM_P2
2023/06/13 00:01:59;;;;;;;9.38;5.50;;;22.00;99.90;;;;;;5046486;28;39219;-89
2023/06/13 00:04:26;;;;;;;9.38;5.30;;;22.00;99.90;;;;;;5031324;28;36511;-88
2023/06/13 00:06:57;;;;;;;6.35;5.70;;;22.00;99.90;;;;;;5027143;28;37500;-89
2023/06/13 00:09:25;;;;;;;11.70;5.70;;;21.90;99.90;;;;;;5029142;28;39510;-92
2023/06/13 00:11:52;;;;;;;6.35;5.25;;;21.90;99.90;;;;;;5031337;28;39558;-92
2023/06/13 00:14:20;;;;;;;9.10;5.18;;;21.90;99.90;;;;;;5031206;28;37951;-91
2023/06/13 00:16:47;;;;;;;7.63;5.35;;;21.90;99.90;;;;;;5031680;28;38507;-88
2023/06/13 00:19:14;;;;;;;6.80;5.07;;;21.70;99.90;;;;;;5027214;28;37618;-92
2023/06/13 00:21:41;;;;;;;7.03;5.28;;;21.80;99.90;;;;;;5029019;28;38234;-93
2023/06/13 00:24:07;;;;;;;8.10;5.20;;;21.70;99.90;;;;;;5028773;28;38322;-85
2023/06/13 00:26:34;;;;;;;8.15;4.60;;;21.70;99.90;;;;;;5031223;28;38737;-87
2023/06/13 00:29:00;;;;;;;7.35;4.97;;;21.70;99.90;;;;;;5029491;28;39342;-88
2023/06/13 00:31:28;;;;;;;5.63;4.57;;;21.70;99.90;;;;;;5029105;28;47951;-89
2023/06/13 00:34:10;;;;;;;7.15;4.20;;;21.60;99.90;;;;;;5030852;28;38875;-91
2023/06/13 00:36:38;;;;;;;9.23;4.88;;;21.60;99.90;;;;;;5028572;28;47379;-89
2023/06/13 00:39:06;;;;;;;5.88;4.68;;;21.60;99.90;;;;;;5022369;28;38392;-87
2023/06/13 00:41:33;;;;;;;9.68;4.90;;;21.60;99.90;;;;;;5029479;28;38588;-90
2023/06/13 00:44:00;;;;;;;6.72;4.70;;;21.60;99.90;;;;;;5031231;28;36984;-87
2023/06/13 00:46:35;;;;;;;6.22;4.55;;;21.50;99.90;;;;;;5037369;28;47248;-88
2023/06/13 00:49:04;;;;;;;6.75;4.28;;;21.50;99.90;;;;;;5036979;28;38074;-88
2023/06/13 00:51:35;;;;;;;6.07;4.40;;;21.50;99.90;;;;;;5033154;28;38951;-86
2023/06/13 00:54:06;;;;;;;6.60;4.57;;;21.40;99.90;;;;;;5021876;28;39641;-88
2023/06/13 00:56:34;;;;;;;8.10;4.75;;;21.50;99.90;;;;;;5027309;28;36319;-90
2023/06/13 00:59:02;;;;;;;7.03;4.40;;;21.40;99.90;;;;;;5034745;28;40276;-86
2023/06/13 01:04:02;;;;;;;7.20;4.50;;;21.40;99.90;;;;;;4160670;28;20038;-82
2023/06/13 01:06:28;;;;;;;7.18;3.92;;;21.40;99.90;;;;;;5036350;28;38028;-83
2023/06/13 01:08:58;;;;;;;5.72;4.40;;;21.30;99.90;;;;;;5021892;28;39159;-81
2023/06/13 01:12:06;;;;;;;7.63;4.75;;;21.30;99.90;;;;;;5040007;28;38170;-82
2023/06/13 01:15:01;;;;;;;5.35;4.32;;;21.30;99.90;;;;;;5032034;28;48183;-82
2023/06/13 01:17:35;;;;;;;5.10;4.53;;;21.20;99.90;;;;;;5020501;28;36942;-82
2023/06/13 01:20:05;;;;;;;8.80;4.78;;;21.20;99.90;;;;;;5028084;28;39800;-82
2023/06/13 01:22:37;;;;;;;7.32;4.30;;;21.10;99.90;;;;;;5042257;28;47860;-82
2023/06/13 01:25:21;;;;;;;7.03;4.27;;;21.10;99.90;;;;;;5028664;28;36781;-83
2023/06/13 01:27:50;;;;;;;5.22;3.95;;;21.00;99.90;;;;;;5022598;28;48543;-83
2023/06/13 01:30:19;;;;;;;5.75;4.30;;;21.00;99.90;;;;;;5028744;28;37707;-83
2023/06/13 01:32:47;;;;;;;6.72;4.63;;;21.00;99.90;;;;;;5029800;28;37644;-84
2023/06/13 01:35:14;;;;;;;9.02;4.43;;;20.90;96.10;;;;;;5041558;28;37783;-83
2023/06/13 01:37:40;;;;;;;5.80;4.60;;;20.90;95.70;;;;;;5036089;28;38126;-82
2023/06/13 01:40:07;;;;;;;6.93;4.38;;;20.90;94.50;;;;;;5045103;28;39297;-82
2023/06/13 01:42:34;;;;;;;5.30;4.13;;;20.90;98.40;;;;;;5027051;28;37724;-83
2023/06/13 01:45:01;;;;;;;6.93;4.40;;;20.80;99.90;;;;;;5025526;28;37410;-83
2023/06/13 01:47:32;;;;;;;4.93;4.13;;;20.70;98.90;;;;;;5023758;28;36128;-80
2023/06/13 01:50:14;;;;;;;10.23;4.45;;;20.70;97.00;;;;;;5041435;28;38391;-80
2023/06/13 01:53:00;;;;;;;8.05;4.25;;;20.70;99.60;;;;;;5022172;28;47191;-80
2023/06/13 01:55:38;;;;;;;7.13;4.63;;;20.70;95.00;;;;;;5033931;28;36263;-81
2023/06/13 01:58:16;;;;;;;4.78;4.10;;;20.60;99.90;;;;;;5039801;28;36081;-81
2023/06/13 02:00:44;;;;;;;4.97;3.88;;;20.50;99.90;;;;;;5037217;28;37870;-81
2023/06/13 02:03:24;;;;;;;4.85;3.88;;;20.40;99.90;;;;;;5024671;28;39093;-82
2023/06/13 02:05:51;;;;;;;5.63;4.30;;;20.40;99.90;;;;;;5024116;28;37838;-81
2023/06/13 02:08:17;;;;;;;6.57;3.97;;;20.40;99.90;;;;;;5023381;28;37363;-82
2023/06/13 02:10:44;;;;;;;7.80;4.63;;;20.40;99.90;;;;;;5021570;28;37773;-83
2023/06/13 02:13:10;;;;;;;5.85;3.95;;;20.30;99.90;;;;;;5022367;28;38315;-81
2023/06/13 02:15:36;;;;;;;6.13;4.22;;;20.30;95.70;;;;;;5026431;28;36893;-82
2023/06/13 02:18:02;;;;;;;6.07;4.40;;;20.30;99.70;;;;;;5023883;28;36202;-81
2023/06/13 02:20:29;;;;;;;5.63;4.25;;;20.30;99.90;;;;;;5027138;28;36327;-80
2023/06/13 02:22:56;;;;;;;4.68;4.05;;;20.20;99.90;;;;;;5025705;28;37386;-82
2023/06/13 02:25:22;;;;;;;5.55;4.05;;;20.20;99.90;;;;;;5019603;28;37154;-81
2023/06/13 02:27:48;;;;;;;4.35;3.95;;;20.20;99.90;;;;;;5019984;28;37646;-81
2023/06/13 02:30:14;;;;;;;6.28;4.22;;;20.10;99.90;;;;;;5039184;28;37331;-81
2023/06/13 02:32:41;;;;;;;5.50;4.05;;;19.90;99.90;;;;;;5030650;28;38297;-82
2023/06/13 02:35:08;;;;;;;6.53;4.32;;;19.90;99.90;;;;;;5030607;28;36572;-81
2023/06/13 02:37:34;;;;;;;7.25;3.92;;;19.90;99.90;;;;;;5038315;28;37436;-80
2023/06/13 02:40:01;;;;;;;5.50;4.10;;;19.80;99.90;;;;;;5029664;28;39111;-81
2023/06/13 02:42:30;;;;;;;12.93;4.50;;;19.70;99.90;;;;;;5033375;28;37248;-81
2023/06/13 02:44:57;;;;;;;5.45;4.40;;;19.70;99.90;;;;;;5031377;28;36595;-81
2023/06/13 02:47:23;;;;;;;6.95;4.25;;;19.70;99.90;;;;;;5044826;28;37157;-82
2023/06/13 02:49:49;;;;;;;7.82;4.22;;;19.70;99.90;;;;;;5029200;28;39004;-80
2023/06/13 02:52:15;;;;;;;7.68;3.83;;;19.80;99.90;;;;;;5027283;28;38284;-81
2023/06/13 02:54:41;;;;;;;5.28;3.88;;;19.70;99.90;;;;;;5027860;28;38339;-81
2023/06/13 02:57:09;;;;;;;5.47;4.18;;;19.70;99.90;;;;;;5027671;28;37258;-81
2023/06/13 02:59:35;;;;;;;6.25;4.40;;;19.70;99.90;;;;;;5028420;28;39806;-81
2023/06/13 03:02:01;;;;;;;4.93;3.85;;;19.60;99.90;;;;;;5027545;28;37033;-81
2023/06/13 03:04:28;;;;;;;6.13;4.75;;;19.50;99.90;;;;;;5041105;28;49445;-81
2023/06/13 03:06:55;;;;;;;4.88;4.35;;;19.50;99.90;;;;;;5031990;28;37261;-80
2023/06/13 03:09:21;;;;;;;10.88;4.40;;;19.40;99.90;;;;;;5038945;28;37675;-82
2023/06/13 03:11:48;;;;;;;7.45;4.32;;;19.40;99.90;;;;;;5046992;28;39285;-81
2023/06/13 03:14:16;;;;;;;6.32;4.13;;;19.30;99.90;;;;;;5029606;28;36625;-81
2023/06/13 03:16:43;;;;;;;9.25;4.63;;;19.30;99.90;;;;;;5025452;28;35954;-81
2023/06/13 03:19:09;;;;;;;7.45;4.75;;;19.20;99.90;;;;;;5025868;28;39057;-79
2023/06/13 03:21:35;;;;;;;6.20;4.07;;;19.10;99.90;;;;;;5030572;28;38316;-80
2023/06/13 03:24:01;;;;;;;5.45;4.35;;;19.00;99.90;;;;;;5046385;28;37277;-81
2023/06/13 03:26:28;;;;;;;9.77;4.88;;;19.00;99.90;;;;;;5043551;28;48958;-81
2023/06/13 03:28:54;;;;;;;6.90;3.97;;;19.00;99.90;;;;;;5032240;28;37784;-79
2023/06/13 03:31:20;;;;;;;8.90;4.35;;;19.00;99.90;;;;;;5029101;28;37516;-81
2023/06/13 03:33:46;;;;;;;8.05;4.50;;;19.10;99.90;;;;;;5028094;28;36915;-80
2023/06/13 03:36:12;;;;;;;9.45;4.68;;;19.00;99.90;;;;;;5021678;28;36165;-81
2023/06/13 03:38:39;;;;;;;5.68;4.70;;;19.00;99.90;;;;;;5025175;28;37604;-81
2023/06/13 03:41:05;;;;;;;5.38;4.40;;;19.00;99.90;;;;;;5030732;28;39138;-82
2023/06/13 03:43:32;;;;;;;5.78;4.65;;;18.90;99.90;;;;;;5029031;28;36692;-81
2023/06/13 03:45:58;;;;;;;11.73;4.68;;;19.00;99.90;;;;;;5029692;28;37004;-81
2023/06/13 03:48:26;;;;;;;9.85;4.90;;;18.90;99.90;;;;;;5040834;28;38898;-80
2023/06/13 03:50:52;;;;;;;4.78;4.25;;;18.90;99.90;;;;;;5029074;28;37600;-81
2023/06/13 03:53:18;;;;;;;7.57;4.88;;;18.90;99.90;;;;;;5023349;28;37184;-81
2023/06/13 03:55:45;;;;;;;6.55;4.57;;;18.90;1.00;;;;;;5030537;28;36218;-81
2023/06/13 03:58:11;;;;;;;7.72;4.68;;;18.80;99.90;;;;;;5030405;28;37721;-80
2023/06/13 04:00:39;;;;;;;7.03;4.90;;;18.80;99.90;;;;;;5022314;28;38363;-81
2023/06/13 04:03:07;;;;;;;5.55;4.47;;;18.80;99.90;;;;;;5029110;28;36675;-82
2023/06/13 04:05:34;;;;;;;6.57;4.63;;;18.90;99.90;;;;;;5025098;28;36116;-80
2023/06/13 04:08:01;;;;;;;11.77;4.40;;;18.90;99.90;;;;;;5027102;28;38171;-80
2023/06/13 04:10:28;;;;;;;8.93;4.53;;;18.90;99.90;;;;;;5024658;28;47308;-81
2023/06/13 04:12:54;;;;;;;9.65;4.43;;;19.00;99.90;;;;;;5020591;28;36903;-80
2023/06/13 04:15:20;;;;;;;7.20;4.70;;;19.00;99.90;;;;;;5021267;28;37528;-80
2023/06/13 04:17:46;;;;;;;5.97;5.00;;;18.90;1.00;;;;;;5030143;28;37929;-79
2023/06/13 04:20:14;;;;;;;7.18;4.78;;;18.80;1.00;;;;;;5024205;28;38523;-79
2023/06/13 04:22:44;;;;;;;6.38;4.47;;;18.90;99.90;;;;;;5020419;28;36525;-79
2023/06/13 04:25:10;;;;;;;7.20;4.70;;;19.00;99.90;;;;;;5024446;28;38211;-79
2023/06/13 04:27:38;;;;;;;7.13;4.68;;;19.00;99.90;;;;;;5024819;28;38684;-79
2023/06/13 04:30:06;;;;;;;5.65;4.70;;;19.10;99.90;;;;;;5025013;28;37277;-80
2023/06/13 04:32:34;;;;;;;7.47;4.43;;;19.10;99.90;;;;;;5023226;28;47747;-82
2023/06/13 04:35:00;;;;;;;6.43;4.60;;;19.20;99.90;;;;;;5022786;28;36149;-82
2023/06/13 04:37:26;;;;;;;6.03;4.22;;;19.20;99.90;;;;;;5023321;28;39156;-83
2023/06/13 04:39:53;;;;;;;6.25;4.70;;;19.20;99.90;;;;;;5020566;28;38367;-79
2023/06/13 04:42:29;;;;;;;8.50;5.22;;;19.30;99.90;;;;;;5020683;28;38302;-80
2023/06/13 04:44:58;;;;;;;10.65;4.40;;;19.20;99.90;;;;;;5021662;28;37674;-81
2023/06/13 04:47:29;;;;;;;6.10;4.22;;;19.30;1.00;;;;;;5019623;28;38532;-81
2023/06/13 04:49:58;;;;;;;5.85;4.65;;;19.20;99.90;;;;;;5025390;28;38447;-81
2023/06/13 04:52:32;;;;;;;7.40;5.47;;;19.30;99.90;;;;;;5022201;28;37915;-76
2023/06/13 04:55:03;;;;;;;10.77;4.70;;;19.30;99.90;;;;;;5022033;28;38522;-78
2023/06/13 04:57:30;;;;;;;7.28;4.95;;;19.30;99.90;;;;;;5013835;28;48306;-85
2023/06/13 04:59:58;;;;;;;9.30;4.80;;;19.50;1.00;;;;;;5024176;28;38008;-81
2023/06/13 05:02:30;;;;;;;6.50;4.95;;;19.60;99.90;;;;;;5019301;28;36776;-85
2023/06/13 05:04:56;;;;;;;;;;;19.90;99.90;;;;;;5020915;28;37660;-84
2023/06/13 05:07:24;;;;;;;8.02;4.68;;;20.20;99.90;;;;;;5030751;28;38096;-82
2023/06/13 05:10:03;;;;;;;;;;;;;;;;;;;;;
2023/06/13 05:12:30;;;;;;;8.15;4.60;;;20.60;99.90;;;;;;5040881;28;37741;-85
2023/06/13 05:14:56;;;;;;;8.40;5.25;;;20.60;99.90;;;;;;5042218;28;37332;-82
2023/06/13 05:17:22;;;;;;;7.43;4.35;;;20.60;99.90;;;;;;5033959;28;38965;-82
2023/06/13 05:19:52;;;;;;;10.60;4.50;;;20.70;99.90;;;;;;5026973;28;37927;-83
2023/06/13 05:22:18;;;;;;;6.63;4.70;;;20.80;99.90;;;;;;5026141;28;38200;-81
2023/06/13 05:24:44;;;;;;;8.32;4.90;;;20.70;99.90;;;;;;5028200;28;36426;-81
2023/06/13 05:27:11;;;;;;;5.07;4.22;;;20.80;99.90;;;;;;5024389;28;38142;-80
2023/06/13 05:29:38;;;;;;;10.05;4.57;;;20.80;99.90;;;;;;5042260;28;39397;-81
2023/06/13 05:32:04;;;;;;;6.45;4.70;;;21.00;99.90;;;;;;5046921;28;39214;-81
2023/06/13 05:34:31;;;;;;;7.13;4.55;;;21.00;99.90;;;;;;5028774;28;37422;-78
2023/06/13 05:36:57;;;;;;;7.65;3.97;;;21.10;99.90;;;;;;5037700;28;39944;-80
2023/06/13 05:39:23;;;;;;;8.75;4.90;;;21.20;99.90;;;;;;5022903;28;37668;-80
2023/06/13 05:41:49;;;;;;;9.30;5.10;;;21.30;99.90;;;;;;5019799;28;37402;-83
2023/06/13 05:44:16;;;;;;;4.82;4.32;;;21.20;99.90;;;;;;5019663;28;36336;-84
2023/06/13 05:46:42;;;;;;;7.88;4.47;;;21.30;99.90;;;;;;5033168;28;37821;-79
2023/06/13 05:49:08;;;;;;;8.40;4.78;;;21.50;99.90;;;;;;5046858;28;38182;-78
2023/06/13 05:51:34;;;;;;;6.13;4.00;;;21.40;99.90;;;;;;5021460;28;35968;-78
2023/06/13 05:54:01;;;;;;;7.75;4.82;;;21.60;99.90;;;;;;5013159;28;36018;-81
2023/06/13 05:56:27;;;;;;;7.75;4.38;;;21.80;99.90;;;;;;5009137;28;37562;-81
2023/06/13 05:58:53;;;;;;;7.55;4.63;;;21.70;99.90;;;;;;5014719;28;39201;-80
2023/06/13 06:01:20;;;;;;;5.18;4.63;;;21.80;99.90;;;;;;5032818;28;37222;-79
2023/06/13 06:03:46;;;;;;;6.72;4.35;;;22.10;99.90;;;;;;5035226;28;38567;-79
2023/06/13 06:06:13;;;;;;;6.40;4.75;;;22.20;99.90;;;;;;5021242;28;37663;-79
2023/06/13 06:08:39;;;;;;;9.40;4.72;;;22.40;99.90;;;;;;5035245;28;37927;-80
2023/06/13 06:11:05;;;;;;;11.00;4.88;;;22.30;99.90;;;;;;5031430;28;37356;-81
2023/06/13 06:13:32;;;;;;;7.85;4.53;;;22.40;99.90;;;;;;5017607;28;36199;-83
2023/06/13 06:15:58;;;;;;;6.18;4.60;;;22.50;99.90;;;;;;5022452;28;37971;-81
2023/06/13 06:18:24;;;;;;;9.35;4.60;;;22.50;99.90;;;;;;5021699;28;38226;-79
2023/06/13 06:20:50;;;;;;;7.28;5.00;;;22.50;99.90;;;;;;5043289;28;37120;-79
2023/06/13 06:23:16;;;;;;;7.32;4.70;;;22.40;99.90;;;;;;5025119;28;37797;-79
2023/06/13 06:25:42;;;;;;;7.82;4.85;;;22.50;99.90;;;;;;5041144;28;38726;-85
2023/06/13 06:28:09;;;;;;;10.02;5.30;;;22.70;99.90;;;;;;5043974;28;37603;-89
2023/06/13 06:30:35;;;;;;;5.82;4.65;;;22.80;99.90;;;;;;5047523;28;37862;-89
2023/06/13 06:33:01;;;;;;;7.63;4.68;;;23.00;99.90;;;;;;5032374;28;36467;-87
2023/06/13 06:35:28;;;;;;;5.90;4.82;;;23.00;99.90;;;;;;5048941;28;48749;-88
2023/06/13 06:37:54;;;;;;;15.13;5.18;;;23.00;99.90;;;;;;5028053;28;38949;-83
2023/06/13 06:40:21;;;;;;;8.02;4.55;;;23.00;99.90;;;;;;5042839;28;38397;-85
2023/06/13 06:42:49;;;;;;;9.38;4.95;;;23.00;99.90;;;;;;5030686;28;35137;-87
2023/06/13 06:45:15;;;;;;;5.05;4.43;;;23.30;99.90;;;;;;5039266;28;39500;-81
2023/06/13 06:47:42;;;;;;;6.57;4.60;;;23.30;99.90;;;;;;5037894;28;37914;-78
2023/06/13 06:50:08;;;;;;;8.65;4.60;;;23.30;99.90;;;;;;5037842;28;37189;-80
2023/06/13 06:52:35;;;;;;;10.40;3.83;;;23.50;99.90;;;;;;5028553;28;37261;-84
2023/06/13 06:55:01;;;;;;;8.77;4.45;;;23.60;99.90;;;;;;5027290;28;39534;-79
2023/06/13 06:57:27;;;;;;;9.55;4.90;;;23.80;99.90;;;;;;5043411;28;39113;-78
2023/06/13 06:59:53;;;;;;;16.05;4.82;;;24.10;99.90;;;;;;5027817;28;36669;-78
2023/06/13 07:02:20;;;;;;;10.93;4.45;;;24.20;99.90;;;;;;5047420;28;37982;-79
2023/06/13 07:04:46;;;;;;;10.05;4.00;;;24.10;80.90;;;;;;5048951;28;39393;-79
2023/06/13 07:07:12;;;;;;;6.60;3.95;;;24.10;76.80;;;;;;5030013;28;38150;-79
2023/06/13 07:09:38;;;;;;;7.90;4.20;;;24.20;51.30;;;;;;5047312;28;37939;-78
2023/06/13 07:12:05;;;;;;;7.38;4.15;;;24.10;59.40;;;;;;5043033;28;37058;-78
2023/06/13 07:14:31;;;;;;;8.65;4.47;;;24.10;57.10;;;;;;5031794;28;38896;-80
2023/06/13 07:16:57;;;;;;;6.18;4.07;;;24.20;31.30;;;;;;5028535;28;39012;-79
2023/06/13 07:19:23;;;;;;;8.65;4.05;;;24.40;33.40;;;;;;5056321;28;38696;-78
2023/06/13 07:21:49;;;;;;;8.95;4.68;;;24.30;23.50;;;;;;5032800;28;36018;-79
2023/06/13 07:24:16;;;;;;;8.20;4.47;;;24.10;17.20;;;;;;5047348;28;39819;-79
2023/06/13 07:26:42;;;;;;;8.25;4.15;;;24.40;33.60;;;;;;5026736;28;38601;-79
2023/06/13 07:29:08;;;;;;;7.15;4.10;;;24.80;39.10;;;;;;5047537;28;37834;-79
2023/06/13 07:31:34;;;;;;;5.57;3.72;;;25.10;29.40;;;;;;5030888;28;36100;-78
2023/06/13 07:34:00;;;;;;;5.72;3.95;;;25.20;32.60;;;;;;5044893;28;38049;-78
2023/06/13 07:36:27;;;;;;;8.70;4.00;;;25.50;12.40;;;;;;5031114;28;37262;-79
2023/06/13 07:38:53;;;;;;;5.15;4.00;;;25.60;21.20;;;;;;5058445;28;40102;-79
2023/06/13 07:41:19;;;;;;;8.95;4.20;;;25.80;38.70;;;;;;5047342;28;37414;-80
2023/06/13 07:43:46;;;;;;;8.85;3.95;;;26.10;4.50;;;;;;5043913;28;37613;-79
2023/06/13 07:46:12;;;;;;;4.30;3.60;;;26.10;1.00;;;;;;5037973;28;37202;-79
2023/06/13 07:48:38;;;;;;;4.13;3.70;;;26.00;1.00;;;;;;5038454;28;37614;-79
2023/06/13 07:51:05;;;;;;;5.55;3.80;;;26.10;1.00;;;;;;5031052;28;37340;-79
2023/06/13 07:53:31;;;;;;;7.47;3.72;;;26.00;1.00;;;;;;5031521;28;38727;-79
2023/06/13 07:55:57;;;;;;;3.85;3.50;;;26.10;1.00;;;;;;5052174;28;38739;-79
2023/06/13 07:58:23;;;;;;;7.15;4.00;;;26.10;1.00;;;;;;5035088;28;37581;-80
2023/06/13 08:00:50;;;;;;;11.02;4.30;;;26.30;1.00;;;;;;5037391;28;36050;-80
2023/06/13 08:03:16;;;;;;;7.65;3.92;;;26.40;1.00;;;;;;5032127;28;38107;-81
2023/06/13 08:05:42;;;;;;;10.52;4.63;;;26.60;1.00;;;;;;5027814;28;37193;-80
2023/06/13 08:08:08;;;;;;;8.60;3.80;;;26.50;1.00;;;;;;5028693;28;37667;-79
2023/06/13 08:10:34;;;;;;;8.35;3.60;;;26.50;1.00;;;;;;5027442;28;37311;-80
2023/06/13 08:13:01;;;;;;;8.52;3.60;;;26.50;1.00;;;;;;5041168;28;37530;-80
2023/06/13 08:15:27;;;;;;;6.90;3.58;;;26.90;1.00;;;;;;5025500;28;47201;-80
2023/06/13 08:17:54;;;;;;;6.20;3.53;;;26.80;1.00;;;;;;5034471;28;37046;-79
2023/06/13 08:20:20;;;;;;;6.72;3.47;;;26.70;1.00;;;;;;5026886;28;38482;-79
2023/06/13 08:22:47;;;;;;;7.43;3.42;;;26.80;1.00;;;;;;5026100;28;39022;-79
2023/06/13 08:25:13;;;;;;;6.80;3.65;;;26.70;1.00;;;;;;5028036;28;38209;-80
2023/06/13 08:27:39;;;;;;;5.90;3.28;;;26.80;1.00;;;;;;5022239;28;36721;-79
2023/06/13 08:30:06;;;;;;;8.75;3.42;;;27.10;1.00;;;;;;5027404;28;36463;-79
2023/06/13 08:32:33;;;;;;;4.78;3.47;;;27.20;1.00;;;;;;5023477;28;48340;-78
2023/06/13 08:34:59;;;;;;;9.45;4.00;;;27.10;1.00;;;;;;5025409;28;37411;-81
2023/06/13 08:37:26;;;;;;;16.27;4.07;;;27.30;1.00;;;;;;5026718;28;36700;-81
2023/06/13 08:39:52;;;;;;;6.35;3.63;;;27.40;1.00;;;;;;5027250;28;36433;-79
2023/06/13 08:42:19;;;;;;;5.57;3.53;;;27.30;1.00;;;;;;5022774;28;37520;-79
2023/06/13 08:44:48;;;;;;;10.80;3.47;;;27.20;1.00;;;;;;5026535;28;38179;-83
2023/06/13 08:47:16;;;;;;;15.40;4.13;;;27.10;1.00;;;;;;5024588;28;36767;-84
2023/06/13 08:49:43;;;;;;;5.75;3.60;;;27.30;1.00;;;;;;5025942;28;35942;-82
2023/06/13 08:52:11;;;;;;;7.95;3.60;;;27.40;1.00;;;;;;5028348;28;39489;-81
2023/06/13 08:54:42;;;;;;;6.10;3.55;;;27.40;1.00;;;;;;5021701;28;38230;-80
2023/06/13 08:57:11;;;;;;;6.82;3.22;;;27.20;1.00;;;;;;5023017;28;38453;-81
2023/06/13 08:59:38;;;;;;;6.18;3.97;;;27.10;1.00;;;;;;5028502;28;36265;-84
2023/06/13 09:02:05;;;;;;;7.18;3.63;;;27.10;1.00;;;;;;5025804;28;37788;-84
2023/06/13 09:04:33;;;;;;;10.48;3.63;;;27.20;1.00;;;;;;5024189;28;38795;-83
2023/06/13 09:07:01;;;;;;;9.13;3.88;;;27.50;1.00;;;;;;5018483;28;36503;-82
2023/06/13 09:09:28;;;;;;;11.57;3.25;;;27.50;1.00;;;;;;5024209;28;47801;-88
2023/06/13 09:11:55;;;;;;;6.82;4.05;;;27.30;1.00;;;;;;5030791;28;39733;-87
2023/06/13 09:14:22;;;;;;;12.48;3.97;;;27.40;1.00;;;;;;5023724;28;37501;-87
2023/06/13 09:16:53;;;;;;;13.27;4.07;;;27.70;1.00;;;;;;5026578;28;35276;-89
2023/06/13 09:19:19;;;;;;;18.90;4.32;;;27.90;1.00;;;;;;5027960;28;36364;-86
2023/06/13 09:21:46;;;;;;;7.40;3.60;;;27.60;1.00;;;;;;5028218;28;37885;-85
2023/06/13 09:24:12;;;;;;;8.57;3.40;;;27.60;1.00;;;;;;5028507;28;37325;-87
2023/06/13 09:26:42;;;;;;;16.08;4.15;;;27.60;1.00;;;;;;5028664;28;36630;-89
2023/06/13 09:29:10;;;;;;;4.45;3.30;;;27.80;1.00;;;;;;5018304;28;35991;-86
2023/06/13 09:31:39;;;;;;;4.00;3.35;;;28.30;1.00;;;;;;5029034;28;38118;-87
2023/06/13 09:34:08;;;;;;;5.60;3.67;;;28.70;1.00;;;;;;5023479;28;37364;-90
2023/06/13 09:36:37;;;;;;;7.63;3.80;;;28.80;1.00;;;;;;5027571;28;36777;-88
2023/06/13 09:39:04;;;;;;;9.63;3.70;;;28.50;1.00;;;;;;5021284;28;37866;-84
2023/06/13 09:41:31;;;;;;;6.15;3.70;;;28.00;1.00;;;;;;5025519;28;39067;-86
2023/06/13 09:44:03;;;;;;;6.55;3.60;;;27.70;1.00;;;;;;5026652;28;37562;-84
2023/06/13 09:46:32;;;;;;;8.35;3.80;;;28.10;1.00;;;;;;5024018;28;48462;-83
2023/06/13 09:48:59;;;;;;;5.80;3.60;;;28.10;1.00;;;;;;5030745;28;35952;-84
2023/06/13 09:51:28;;;;;;;5.80;3.38;;;28.30;1.00;;;;;;5039657;28;40328;-84
2023/06/13 09:53:55;;;;;;;9.32;3.35;;;28.30;1.00;;;;;;5031228;28;37419;-83
2023/06/13 09:56:23;;;;;;;8.43;3.70;;;28.30;1.00;;;;;;5029041;28;36425;-82
2023/06/13 09:58:50;;;;;;;3.83;3.42;;;28.50;1.00;;;;;;5030834;28;37257;-88
2023/06/13 10:01:17;;;;;;;7.47;3.67;;;28.00;1.00;;;;;;5025531;28;37738;-82
2023/06/13 10:03:44;;;;;;;6.13;3.60;;;28.10;1.00;;;;;;5025569;28;37341;-80
2023/06/13 10:06:11;;;;;;;9.77;3.88;;;28.10;1.00;;;;;;5028542;28;36772;-81
2023/06/13 10:08:37;;;;;;;7.40;3.80;;;28.10;1.00;;;;;;5029609;28;37215;-78
2023/06/13 10:11:10;;;;;;;8.02;3.38;;;28.00;1.00;;;;;;5023785;28;37690;-82
2023/06/13 10:13:44;;;;;;;10.30;3.55;;;28.00;1.00;;;;;;5028674;28;38535;-80
2023/06/13 10:16:12;;;;;;;10.85;4.15;;;28.40;1.00;;;;;;5030446;28;38030;-80
2023/06/13 10:18:42;;;;;;;9.57;3.83;;;28.60;1.00;;;;;;5027551;28;37317;-80
2023/06/13 10:21:12;;;;;;;10.20;3.97;;;28.80;1.00;;;;;;5027736;28;38774;-82
2023/06/13 10:23:48;;;;;;;7.43;3.92;;;28.40;1.00;;;;;;5027148;28;37201;-83
2023/06/13 10:26:27;;;;;;;5.35;3.45;;;28.40;1.00;;;;;;5028323;28;39012;-80
2023/06/13 10:29:24;;;;;;;8.63;3.92;;;28.50;1.00;;;;;;5027317;28;38177;-82
2023/06/13 10:31:56;;;;;;;10.48;3.80;;;28.50;1.00;;;;;;5015252;28;46985;-79
2023/06/13 10:34:40;;;;;;;7.57;3.55;;;28.70;1.00;;;;;;5027332;28;37387;-77
2023/06/13 10:37:11;;;;;;;9.10;3.97;;;28.60;1.00;;;;;;5028254;28;36422;-78
2023/06/13 10:39:53;;;;;;;;;;;28.10;1.00;;;;;;5030448;28;37172;-81
2023/06/13 10:42:19;;;;;;;6.13;3.88;;;28.20;1.00;;;;;;5023336;28;37668;-77
2023/06/13 10:45:06;;;;;;;6.72;3.88;;;28.40;1.00;;;;;;5023655;28;39236;-80
2023/06/13 10:47:32;;;;;;;8.40;3.47;;;28.70;1.00;;;;;;5022067;28;47242;-80
2023/06/13 10:50:01;;;;;;;5.30;3.42;;;28.40;1.00;;;;;;5027555;28;36130;-79
2023/06/13 10:52:29;;;;;;;8.20;3.90;;;28.40;1.00;;;;;;5027530;28;37715;-77
2023/06/13 10:55:03;;;;;;;7.45;3.63;;;28.70;1.00;;;;;;5024930;28;37128;-79
2023/06/13 10:57:50;;;;;;;7.78;3.40;;;28.80;1.00;;;;;;5026959;28;36795;-80
2023/06/13 11:00:28;;;;;;;7.65;3.70;;;28.50;1.00;;;;;;5026778;28;38741;-82
2023/06/13 11:03:04;;;;;;;4.20;3.40;;;28.70;1.00;;;;;;5023719;28;38052;-81
2023/06/13 11:05:44;;;;;;;8.07;3.60;;;28.80;1.00;;;;;;5027430;28;48279;-81
2023/06/13 11:08:14;;;;;;;4.50;3.78;;;29.10;1.00;;;;;;5021539;28;38142;-80
2023/06/13 11:10:43;;;;;;;5.72;3.50;;;29.00;1.00;;;;;;5024764;28;36182;-84
2023/06/13 11:13:26;;;;;;;5.53;3.50;;;29.00;1.00;;;;;;5021949;28;37676;-79
2023/06/13 11:15:57;;;;;;;4.20;3.67;;;29.20;1.00;;;;;;5020908;28;38920;-80
2023/06/13 11:18:29;;;;;;;5.93;3.30;;;29.20;1.00;;;;;;5021700;28;36916;-85
2023/06/13 11:20:57;;;;;;;5.82;3.28;;;29.20;1.00;;;;;;5023907;28;37130;-89
2023/06/13 11:23:32;;;;;;;5.18;3.65;;;29.20;1.00;;;;;;5016306;28;37694;-87
2023/06/13 11:25:59;;;;;;;7.85;4.13;;;28.90;1.00;;;;;;5036133;28;37495;-86
2023/06/13 11:28:25;;;;;;;8.23;3.85;;;29.00;1.00;;;;;;5006196;28;36962;-91
2023/06/13 11:30:52;;;;;;;4.05;3.42;;;29.10;1.00;;;;;;5016284;28;36018;-90
2023/06/13 11:33:19;;;;;;;4.35;3.38;;;29.30;1.00;;;;;;5011857;28;37488;-82
2023/06/13 11:35:50;;;;;;;8.13;4.32;;;29.50;1.00;;;;;;5008216;28;37850;-81
2023/06/13 11:38:24;;;;;;;4.67;3.90;;;29.40;1.00;;;;;;5010751;28;37403;-84
2023/06/13 11:40:56;;;;;;;4.82;3.40;;;29.40;1.00;;;;;;5028851;28;36100;-83
2023/06/13 11:43:30;;;;;;;6.00;3.97;;;29.70;1.00;;;;;;5014062;28;39069;-82
2023/06/13 11:46:01;;;;;;;9.02;4.03;;;29.70;1.00;;;;;;5015805;28;38040;-83
2023/06/13 11:48:27;;;;;;;4.50;3.70;;;29.80;1.00;;;;;;5016246;28;48613;-82
2023/06/13 11:51:11;;;;;;;4.60;3.63;;;29.60;1.00;;;;;;5013433;28;36497;-82
2023/06/13 11:54:01;;;;;;;6.95;3.80;;;29.50;1.00;;;;;;5015944;28;47130;-82
2023/06/13 11:56:28;;;;;;;5.68;3.90;;;29.40;1.00;;;;;;5010768;28;47062;-81
2023/06/13 11:58:56;;;;;;;6.55;3.67;;;29.60;1.00;;;;;;5016308;28;38390;-82
2023/06/13 12:01:25;;;;;;;8.02;4.03;;;29.70;1.00;;;;;;5013766;28;35717;-83
2023/06/13 12:03:53;;;;;;;10.15;3.95;;;29.50;1.00;;;;;;5014023;28;39325;-83
2023/06/13 12:06:20;;;;;;;6.38;3.60;;;29.50;1.00;;;;;;5012549;28;39058;-77
2023/06/13 12:08:47;;;;;;;4.35;3.90;;;29.60;1.00;;;;;;5011536;28;37381;-81
2023/06/13 12:11:18;;;;;;;7.65;3.70;;;29.10;1.00;;;;;;5011818;28;36442;-82
2023/06/13 12:13:56;;;;;;;10.30;3.95;;;29.40;1.00;;;;;;5016752;28;38904;-82
2023/06/13 12:16:24;;;;;;;9.32;3.67;;;29.40;1.00;;;;;;5014470;28;37418;-85
2023/06/13 12:18:52;;;;;;;7.43;3.85;;;29.50;1.00;;;;;;5010861;28;36774;-82
2023/06/13 12:21:18;;;;;;;10.18;3.53;;;29.30;1.00;;;;;;5016570;28;36679;-82
2023/06/13 12:23:44;;;;;;;4.75;3.53;;;29.30;1.00;;;;;;5013294;28;39021;-82
2023/06/13 12:26:11;;;;;;;4.35;3.50;;;29.70;1.00;;;;;;5009481;28;37405;-82
2023/06/13 12:28:38;;;;;;;5.05;3.40;;;29.80;1.00;;;;;;5011298;28;36785;-85
2023/06/13 12:31:07;;;;;;;7.90;3.88;;;30.10;1.00;;;;;;5016385;28;36819;-80
2023/06/13 12:33:37;;;;;;;5.55;3.47;;;29.80;1.00;;;;;;5011806;28;38069;-81
2023/06/13 12:36:05;;;;;;;6.00;3.60;;;29.70;1.00;;;;;;5013199;28;38478;-77
2023/06/13 12:38:31;;;;;;;6.32;4.22;;;29.60;1.00;;;;;;5014458;28;37301;-81
2023/06/13 12:40:58;;;;;;;6.97;3.72;;;29.50;1.00;;;;;;5008393;28;36068;-78
2023/06/13 12:43:29;;;;;;;5.53;3.38;;;29.40;1.00;;;;;;5012661;28;42108;-80
2023/06/13 12:45:57;;;;;;;6.72;3.58;;;29.80;1.00;;;;;;5013216;28;37797;-80
2023/06/13 12:48:24;;;;;;;7.00;3.40;;;29.90;1.00;;;;;;5008141;28;37025;-81
2023/06/13 12:50:54;;;;;;;6.20;3.90;;;29.80;1.00;;;;;;5015174;28;38319;-82
2023/06/13 12:53:24;;;;;;;5.60;3.60;;;29.70;1.00;;;;;;5013474;28;40118;-82
2023/06/13 12:55:51;;;;;;;8.38;3.67;;;29.50;1.00;;;;;;5008886;28;37641;-84
2023/06/13 12:58:26;;;;;;;5.78;3.45;;;29.40;1.00;;;;;;5009673;28;37131;-84
2023/06/13 13:00:54;;;;;;;5.60;3.60;;;29.40;1.00;;;;;;5010702;28;37161;-87
2023/06/13 13:03:20;;;;;;;5.78;3.78;;;29.50;1.00;;;;;;5004469;28;37380;-84